EA3GYL La Torregassa ES current weather conditions

sailwx.info

Wind from 067 at 1 knots gusting 4

Air temperature 13.3° C
Dewpoint 9.2° C

Last reported at 2017-Mar-28 08:47 UTC.
Time now 2017-Mar-28 15:58 UTC

Location: N 41°17' E 001°31'.
View on Google Maps.

See reports from other nearby stations

  
Tides and Currents Weather Stations Pressure Air Temp Water Temp Dewpoint Dewpoint Depression Visibility Wind Speed Wind Dir Waves Ship Positions
date/time (UTC)wind fromknots sea level pressurealtimeterstation pressurevisibilityair tempwater tempwave heightnotes
2017-Mar-28 08:47 067 1 gusting 4 13.3
2017-Mar-28 08:29 076 2 gusting 5 12.8
2017-Mar-28 00:44 320 10.0
2017-Mar-28 00:27 320 10.0
2017-Mar-28 00:09 332 10.0
2017-Mar-27 23:52 328 9.4
2017-Mar-27 23:35 349 9.4
2017-Mar-27 23:19 325 0 gusting 2 10.0
2017-Mar-27 23:01 336 10.0
2017-Mar-27 22:45 334 0 gusting 2 10.0
2017-Mar-27 22:28 349 10.0
2017-Mar-27 22:11 356 0 gusting 2 10.0
2017-Mar-27 21:55 011 0 gusting 1 10.0
2017-Mar-27 21:38 025 10.0
2017-Mar-27 21:01 025 10.6
2017-Mar-27 19:19 115 11.7
2017-Mar-27 19:03 115 11.7
2017-Mar-27 18:46 116 12.2
2017-Mar-27 18:30 115 12.8
2017-Mar-27 18:14 115 13.3
2017-Mar-27 17:58 116 13.3
2017-Mar-27 17:42 113 13.3
2017-Mar-27 17:25 170 13.9
2017-Mar-27 17:09 164 13.9
2017-Mar-27 16:53 154 0 gusting 4 13.9
2017-Mar-27 16:37 150 1 gusting 5 14.4
2017-Mar-27 16:20 132 3 gusting 7 15.6
2017-Mar-27 16:04 112 3 gusting 6 16.1
2017-Mar-27 15:48 030 4 gusting 8 15.6
2017-Mar-27 15:31 098 5 gusting 8 15.6
2017-Mar-27 15:15 072 3 gusting 8 15.6
2017-Mar-27 14:58 053 3 gusting 9 15.0
2017-Mar-27 14:42 121 2 gusting 8 15.0
2017-Mar-27 14:26 076 1 gusting 5 15.6
2017-Mar-27 14:10 018 2 gusting 6 14.4
2017-Mar-27 13:54 041 2 gusting 6 14.4
2017-Mar-27 12:24 055 5 gusting 13 15.0
2017-Mar-27 12:08 059 6 gusting 13 15.0
2017-Mar-27 11:52 038 6 gusting 15 14.4
2017-Mar-27 11:35 065 6 gusting 14 14.4
2017-Mar-27 11:19 055 6 gusting 13 13.9
2017-Mar-27 11:03 353 4 gusting 11 13.3
2017-Mar-27 10:22 022 3 gusting 10 12.8
2017-Mar-27 10:05 335 3 gusting 8 12.2
2017-Mar-27 09:49 011 2 gusting 8 12.2
2017-Mar-27 09:33 022 0 gusting 3 11.7
2017-Mar-27 09:17 040 11.1
2017-Mar-27 09:00 009 1 gusting 4 10.6
2017-Mar-27 08:44 072 0 gusting 2 11.1
2017-Mar-27 08:20 232 1 gusting 6 11.7
2017-Mar-27 08:10 236 3 gusting 11 11.7
2017-Mar-27 08:00 046 4 gusting 6 12.2
2017-Mar-26 22:40 041 1 gusting 5 10.6
2017-Mar-26 22:30 030 0 gusting 2 10.0
2017-Mar-26 22:20 9.4
2017-Mar-26 21:27 042 9.4
2017-Mar-26 19:57 028 11.1
2017-Mar-26 19:41 027 11.1
2017-Mar-26 19:24 038 0 gusting 1 11.1
2017-Mar-26 19:08 150 11.1
2017-Mar-26 18:52 150 11.7
2017-Mar-26 18:36 149 11.7
2017-Mar-26 18:20 150 12.2
2017-Mar-26 18:03 143 12.8
2017-Mar-26 17:47 130 12.8
2017-Mar-26 17:30 129 13.3
2017-Mar-26 17:13 136 0 gusting 3 14.4
2017-Mar-26 16:56 136 0 gusting 3 15.0
2017-Mar-26 16:39 139 2 gusting 5 15.0
2017-Mar-26 16:23 165 1 gusting 4 15.6
2017-Mar-26 16:07 171 1 gusting 5 16.1
2017-Mar-26 15:51 206 2 gusting 8 15.6
2017-Mar-26 15:34 180 1 gusting 6 15.6
2017-Mar-26 15:18 183 4 gusting 8 15.6
2017-Mar-26 15:02 190 3 gusting 7 15.6